Flight Track Log - Related Links

Times and Time Zones

All times are in EDT time to prevent confusion due to time zone crossing. See the N600TR flight status page for this flight to view local times or setup timezone preferences in your user account.

Time Position Orientation Groundspeed Altitude Reporting Facility
EDT Latitude Longitude Course Direction KTS MPH feet Rate Location/Type
Wed 02:14:53 PM 38.2833 -85.7833 191° South 236 272 4,400  Level Louisville TRACON
Wed 02:16:00 PM 37.9404 -86.1358 238° Southwest  Level FlightAware Approximate
Wed 02:16:12 PM 38.2892 -85.8894 274° West 261 300 6,900  Level Indianapolis Center
Wed 02:17:00 PM 37.8802 -86.2340 189° South  Level FlightAware Approximate
Wed 02:17:13 PM 38.2244 -85.9506 217° Southwest 281 323 9,200  Level Indianapolis Center
Wed 02:18:00 PM 37.7825 -86.2544 191° South  Level FlightAware Approximate
Wed 02:18:15 PM 38.1525 -86.0078 212° Southwest 298 343 10,800  Level Indianapolis Center
Wed 02:19:00 PM 37.6853 -86.2787 191° South  Level FlightAware Approximate
Wed 02:19:17 PM 38.0714 -86.0728 212° Southwest 337 388 12,400  Level Indianapolis Center
Wed 02:20:00 PM 37.5881 -86.3030 191° South  Level FlightAware Approximate
Wed 02:20:19 PM 37.9819 -86.1375 210° Southwest 360 414 14,800  Level Indianapolis Center
Wed 02:21:20 PM 37.9050 -86.2203 220° Southwest 360 414 16,700 1,805 Climbing Indianapolis Center
Wed 02:22:22 PM 37.8081 -86.2686 202° Southwest 384 442 18,500 1,645 Climbing Indianapolis Center
Wed 02:23:24 PM 37.6939 -86.2667 179° South 413 475 20,100 1,500 Climbing Indianapolis Center
Wed 02:24:26 PM 37.5656 -86.3000 192° South 402 463 21,600 1,258 Climbing Indianapolis Center
Wed 02:25:28 PM 37.4503 -86.3308 192° South 415 478 22,700 1,113 Climbing Indianapolis Center
Wed 02:26:30 PM 37.3306 -86.3453 185° South 426 490 23,900 1,113 Climbing Indianapolis Center
Wed 02:27:32 PM 37.2103 -86.3589 185° South 429 494 25,000 927 Climbing Indianapolis Center
Wed 02:28:33 PM 37.0861 -86.3728 185° South 441 507 25,800 780 Climbing Indianapolis Center
Wed 02:29:35 PM 36.9669 -86.4158 196° South 438 504 26,600 823 Climbing Indianapolis Center
Wed 02:30:37 PM 36.8414 -86.4331 186° South 451 519 27,500 919 Climbing Indianapolis Center
Wed 02:31:39 PM 36.7161 -86.4589 189° South 454 522 28,500 726 Climbing Indianapolis Center
Wed 02:32:41 PM 36.5733 -86.5058 195° South 448 516 29,000 244 Climbing Indianapolis Center
Wed 02:33:42 PM 36.4481 -86.5439 194° South 451 519 29,000  Level Memphis Center
Wed 02:34:42 PM 36.3344 -86.5803 194° South 456 525 29,000  Level Memphis Center
Wed 02:35:42 PM 36.2108 -86.6219 195° South 462 532 29,000  Level Memphis Center
Wed 02:36:42 PM 36.0869 -86.6661 196° South 467 537 29,000  Level Memphis Center
Wed 02:37:42 PM 35.9631 -86.7103 196° South 472 543 29,000  Level Memphis Center
Wed 02:38:42 PM 35.8311 -86.7569 196° South 467 537 29,000  Level Memphis Center
Wed 02:39:42 PM 35.7100 -86.7494 177° South 448 516 29,000  Level Memphis Center
Wed 02:41:52 PM 35.5078 -86.5058 136° Southeast 455 524 29,000  Level Atlanta Center
Wed 02:42:52 PM 35.4183 -86.3936 134° Southeast 467 537 29,000 -250 Level Atlanta Center
Wed 02:43:52 PM 35.3389 -86.2894 133° Southeast 433 498 28,500 -1,150 Descending Atlanta Center
Wed 02:44:52 PM 35.2461 -86.2336 154° Southeast 388 447 26,700 -1,700 Descending Atlanta Center
Wed 02:45:52 PM 35.1528 -86.1956 162° South 367 422 25,100 -1,350 Descending Atlanta Center
Wed 02:46:52 PM 35.0856 -86.0922 128° Southeast 356 410 24,000 -550 Descending Atlanta Center
Wed 02:47:52 PM 35.0061 -85.9889 133° Southeast 388 447 24,000 -50 Level Atlanta Center
Wed 02:48:52 PM 34.9200 -85.8803 134° Southeast 415 478 23,900 -500 Descending Atlanta Center
Wed 02:49:52 PM 34.8319 -85.7672 133° Southeast 442 509 23,000 -900 Descending Atlanta Center
Wed 02:50:52 PM 34.7414 -85.6642 137° Southeast 447 514 22,100 -1,000 Descending Atlanta Center
Wed 02:51:52 PM 34.6489 -85.5639 138° Southeast 447 514 21,000 -1,450 Descending Atlanta Center
Wed 02:52:52 PM 34.5519 -85.4714 142° Southeast 447 514 19,200 -2,050 Descending Atlanta Center
Wed 02:53:52 PM 34.4547 -85.3842 143° Southeast 442 509 16,900 -2,000 Descending Atlanta Center
Wed 02:54:52 PM 34.3700 -85.3072 143° Southeast 413 475 15,200 -1,350 Descending Atlanta Center
Wed 02:55:52 PM 34.2747 -85.2328 147° Southeast 394 453 14,200 -650 Descending Atlanta Center
Wed 02:56:52 PM 34.1961 -85.1689 146° Southeast 389 448 13,900 -100 Descending Atlanta Center
Wed 02:57:52 PM 34.1364 -85.0803 129° Southeast 354 407 14,000 50 Climbing Atlanta Center
Wed 02:58:52 PM 34.0703 -84.9992 135° Southeast 338 389 14,000 -500 Level Atlanta Center
Wed 02:59:52 PM 34.0167 -84.9058 125° Southeast 333 383 13,000 -950 Descending Atlanta Center
Wed 03:00:52 PM 33.9483 -84.8350 139° Southeast 325 374 12,100 -500 Descending Atlanta Center
Wed 03:01:52 PM 33.8839 -84.7594 136° Southeast 320 368 12,000 -50 Descending Atlanta Center
Wed 03:02:52 PM 33.8239 -84.6864 135° Southeast 315 362 12,000  Level Atlanta Center
Wed 03:03:48 PM 33.7667 -84.6167 135° Southeast 266 306 12,000 -259 Level Atlanta TRACON
Wed 03:04:48 PM 33.7333 -84.5500 121° Southeast 269 310 11,500 -950 Descending Atlanta TRACON
Wed 03:05:48 PM 33.7333 -84.4667 90° East 270 311 10,100 -1,450 Descending Atlanta TRACON
Wed 03:06:48 PM 33.7333 -84.3667 90° East 260 299 8,600 -1,350 Descending Atlanta TRACON
Wed 03:07:48 PM 33.7167 -84.3000 107° East 244 281 7,400 -1,250 Descending Atlanta TRACON
Wed 03:08:48 PM 33.7167 -84.2167 90° East 241 277 6,100 -1,100 Descending Atlanta TRACON
Wed 03:09:48 PM 33.7167 -84.1333 90° East 222 255 5,200 -550 Descending Atlanta TRACON
Wed 03:10:48 PM 33.7333 -84.0833 68° East 191 220 5,000 -100 Descending Atlanta TRACON
Wed 03:11:48 PM 33.7500 -84.0167 73° East 202 232 5,000  Level Atlanta TRACON
Wed 03:12:48 PM 33.7667 -83.9500 73° East 201 231 5,000  Level Atlanta TRACON
Wed 03:13:48 PM 33.7167 -83.9500 180° South 207 238 5,000  Level Atlanta TRACON
Wed 03:14:48 PM 33.6833 -84.0000 231° Southwest 204 235 5,000  Level Atlanta TRACON
Wed 03:15:48 PM 33.6500 -84.0667 239° Southwest 198 228 5,000  Level Atlanta TRACON
Wed 03:16:49 PM 33.6500 -84.1167 270° West 185 213 5,000 -238 Level Atlanta TRACON
Wed 03:17:54 PM 33.6500 -84.1833 270° West 189 217 4,500 -756 Descending Atlanta TRACON
Wed 03:18:48 PM 33.6500 -84.2500 270° West 191 220 3,500 -1,000 Descending Atlanta TRACON
Wed 03:19:48 PM 33.6500 -84.3167 270° West 186 214 2,600 -857 Descending Atlanta TRACON
Wed 03:20:54 PM 33.6500 -84.3667 270° West 152 175 1,700 -818 Descending Atlanta TRACON

Login

Don't have an account? Register now (free) for customized features, flight alerts, and more!